createdAt,value
2022-08-07T00:01:44.704Z,58.07
2022-08-07T00:04:09.213Z,58.12
2022-08-07T00:06:40.900Z,58.34
2022-08-07T00:09:21.345Z,58.42
2022-08-07T00:11:55.635Z,59.00
2022-08-07T00:14:25.445Z,58.96
2022-08-07T00:16:52.700Z,59.05
2022-08-07T00:19:21.621Z,59.45
2022-08-07T00:21:57.361Z,58.95
2022-08-07T00:24:29.016Z,59.41
2022-08-07T00:27:07.653Z,59.78
2022-08-07T00:29:37.138Z,59.54
2022-08-07T00:32:05.952Z,59.77
2022-08-07T00:34:35.485Z,60.29
2022-08-07T00:37:05.134Z,61.02
2022-08-07T00:39:33.799Z,61.42
2022-08-07T00:42:02.293Z,61.55
2022-08-07T00:44:33.090Z,61.84
2022-08-07T00:47:01.493Z,61.72
2022-08-07T00:50:19.475Z,61.85
2022-08-07T00:52:17.605Z,62.10
2022-08-07T00:54:44.500Z,62.23
2022-08-07T00:57:12.616Z,62.63
2022-08-07T00:59:39.502Z,62.89
2022-08-07T01:02:14.237Z,62.72
2022-08-07T01:04:54.329Z,63.27
2022-08-07T01:07:27.543Z,63.53
2022-08-07T01:10:07.011Z,64.03
2022-08-07T01:12:43.975Z,64.18
2022-08-07T01:16:01.336Z,64.16
2022-08-07T01:18:17.188Z,64.40
2022-08-07T01:21:04.294Z,64.60
2022-08-07T01:23:46.717Z,64.54
2022-08-07T01:26:16.729Z,64.65
2022-08-07T01:28:49.875Z,64.85
2022-08-07T01:31:27.945Z,64.88
2022-08-07T01:34:09.137Z,65.40
2022-08-07T01:36:40.854Z,65.45
2022-08-07T01:39:14.366Z,65.74
2022-08-07T01:42:07.179Z,65.87
2022-08-07T01:44:36.191Z,66.20
2022-08-07T01:48:16.492Z,66.77
2022-08-07T01:49:53.608Z,67.27
2022-08-07T01:52:26.589Z,67.53
2022-08-07T01:54:56.464Z,67.60
2022-08-07T01:58:01.249Z,67.51
2022-08-07T02:00:28.652Z,67.61
2022-08-07T02:03:18.917Z,67.92
2022-08-07T02:06:01.066Z,68.40
2022-08-07T02:08:33.955Z,69.23
2022-08-07T02:11:03.790Z,69.11
2022-08-07T02:13:57.478Z,69.00
2022-08-07T02:16:28.606Z,69.12
2022-08-07T02:19:05.662Z,69.07
2022-08-07T02:21:56.435Z,69.24
2022-08-07T02:24:26.184Z,69.00
2022-08-07T02:26:58.437Z,69.60
2022-08-07T02:29:29.097Z,70.07
2022-08-07T02:31:57.920Z,71.27
2022-08-07T02:34:27.725Z,71.81
2022-08-07T02:36:56.640Z,72.10
2022-08-07T02:39:42.431Z,71.83
2022-08-07T02:42:16.219Z,72.93
2022-08-07T02:44:48.870Z,72.94
2022-08-07T02:47:23.457Z,73.51
2022-08-07T02:49:58.092Z,75.57
2022-08-07T02:52:41.581Z,76.56
2022-08-07T02:55:28.288Z,76.33
2022-08-07T02:58:10.940Z,76.38
2022-08-07T03:00:47.402Z,76.80
2022-08-07T03:03:20.951Z,77.71
2022-08-07T03:05:51.707Z,77.85
2022-08-07T03:08:26.936Z,79.28
2022-08-07T03:10:59.664Z,79.55
2022-08-07T03:13:39.195Z,80.90
2022-08-07T03:16:18.696Z,81.42
2022-08-07T03:18:55.118Z,82.93
2022-08-07T03:21:23.388Z,83.37
2022-08-07T03:24:19.218Z,84.83
2022-08-07T03:26:51.030Z,85.07
2022-08-07T03:29:27.535Z,84.92
2022-08-07T03:31:56.297Z,85.77
2022-08-07T03:34:27.544Z,86.50
2022-08-07T03:37:00.161Z,86.49
2022-08-07T03:39:58.941Z,86.12
2022-08-07T03:42:28.193Z,86.06
2022-08-07T03:44:58.134Z,86.98
2022-08-07T03:47:29.629Z,87.67
2022-08-07T03:50:17.518Z,87.91
2022-08-07T03:52:52.497Z,88.17
2022-08-07T03:55:20.047Z,89.38
2022-08-07T03:59:04.641Z,89.43
2022-08-07T04:00:46.486Z,89.26
2022-08-07T04:03:20.884Z,89.64
2022-08-07T04:05:50.551Z,90.52
2022-08-07T04:08:21.878Z,90.63
2022-08-07T04:10:54.026Z,91.13
2022-08-07T04:14:10.627Z,90.59
2022-08-07T04:16:31.058Z,91.25
2022-08-07T04:19:04.232Z,91.62
2022-08-07T04:21:39.909Z,92.73
2022-08-07T04:24:33.701Z,93.12
2022-08-07T04:27:04.899Z,93.72
2022-08-07T04:29:57.142Z,95.23
2022-08-07T04:32:27.203Z,95.07
2022-08-07T04:35:05.516Z,93.99
2022-08-07T04:38:01.025Z,94.17
2022-08-07T04:40:26.600Z,94.83
2022-08-07T04:43:01.904Z,95.62
2022-08-07T04:45:57.609Z,96.88
2022-08-07T04:49:01.507Z,97.44
2022-08-07T04:51:47.169Z,97.93
2022-08-07T04:54:30.312Z,98.14
2022-08-07T04:58:11.707Z,98.08
2022-08-07T05:00:11.067Z,97.95
2022-08-07T05:03:16.745Z,96.67
2022-08-07T05:06:16.413Z,97.53
2022-08-07T05:09:01.425Z,98.34
2022-08-07T05:11:58.835Z,97.87
2022-08-07T05:14:54.053Z,97.13
2022-08-07T05:17:52.933Z,96.92
2022-08-07T05:20:17.958Z,95.97
2022-08-07T05:22:49.483Z,97.64
2022-08-07T05:25:25.557Z,96.59
2022-08-07T05:28:20.589Z,95.99
2022-08-07T05:30:52.343Z,95.29
2022-08-07T05:33:21.789Z,94.06
2022-08-07T05:35:53.585Z,93.36
2022-08-07T05:39:00.301Z,92.46
2022-08-07T05:41:16.762Z,91.26
2022-08-07T05:44:11.648Z,89.90
2022-08-07T05:46:38.266Z,88.05
2022-08-07T05:49:12.102Z,86.66
2022-08-07T05:51:46.371Z,85.30
2022-08-07T05:54:30.339Z,83.48
2022-08-07T05:57:08.855Z,79.39
2022-08-07T05:59:57.132Z,77.41
2022-08-07T06:02:30.661Z,77.33
2022-08-07T06:05:05.162Z,74.85
2022-08-07T06:08:09.164Z,73.12
2022-08-07T06:10:23.713Z,72.00
2022-08-07T06:12:50.935Z,70.70
2022-08-07T06:15:19.688Z,71.27
2022-08-07T06:17:50.632Z,69.31
2022-08-07T06:20:25.678Z,68.93
2022-08-07T06:23:02.549Z,68.10
2022-08-07T06:25:54.647Z,65.32
2022-08-07T06:28:27.708Z,65.19
2022-08-07T06:30:58.121Z,64.30
2022-08-07T06:33:26.691Z,63.91
2022-08-07T06:36:13.531Z,62.58
2022-08-07T06:38:59.230Z,62.10
2022-08-07T06:42:00.716Z,60.87
2022-08-07T06:45:11.899Z,60.32
2022-08-07T06:47:57.470Z,59.01
2022-08-07T06:50:30.549Z,58.96
2022-08-07T06:53:00.371Z,57.18
2022-08-07T06:55:48.079Z,56.60
2022-08-07T06:58:24.505Z,57.04
2022-08-07T07:01:00.159Z,56.45
2022-08-07T07:03:47.647Z,56.18
2022-08-07T07:06:14.543Z,54.14
2022-08-07T07:08:50.856Z,54.27
2022-08-07T07:12:07.553Z,54.99
2022-08-07T07:14:08.299Z,53.77
2022-08-07T07:16:50.040Z,54.14
2022-08-07T07:19:55.405Z,54.31
2022-08-07T07:22:34.412Z,52.18
2022-08-07T07:26:30.862Z,51.32
2022-08-07T07:28:42.357Z,52.02
2022-08-07T07:31:27.109Z,51.73
2022-08-07T07:34:04.890Z,51.82
2022-08-07T07:36:35.293Z,50.68
2022-08-07T07:39:09.193Z,48.24
2022-08-07T07:42:02.316Z,47.57
2022-08-07T07:44:28.196Z,47.02
2022-08-07T07:47:04.371Z,47.36
2022-08-07T07:50:35.717Z,47.21
2022-08-07T07:52:32.474Z,45.47
2022-08-07T07:54:59.914Z,45.24
2022-08-07T07:57:43.612Z,45.34
2022-08-07T08:00:29.768Z,43.98
2022-08-07T08:03:06.135Z,44.86
2022-08-07T08:05:51.049Z,43.95
2022-08-07T08:08:35.262Z,44.37
2022-08-07T08:11:09.307Z,43.05
2022-08-07T08:13:54.642Z,42.58
2022-08-07T08:16:37.153Z,43.37
2022-08-07T08:19:17.804Z,41.90
2022-08-07T08:22:14.353Z,41.39
2022-08-07T08:25:18.849Z,40.38
2022-08-07T08:27:56.252Z,39.61
2022-08-07T08:30:29.695Z,38.45
2022-08-07T08:33:03.031Z,38.99
2022-08-07T08:35:39.278Z,38.95
2022-08-07T08:38:17.903Z,37.92
2022-08-07T08:41:16.812Z,36.87
2022-08-07T08:44:19.322Z,36.15
2022-08-07T08:46:59.000Z,37.13
2022-08-07T08:50:02.183Z,37.16
2022-08-07T08:52:32.111Z,35.97
2022-08-07T08:55:55.362Z,36.02
2022-08-07T08:58:29.980Z,35.94
2022-08-07T09:01:14.826Z,37.07
2022-08-07T09:03:53.150Z,36.08
2022-08-07T09:06:42.657Z,36.45
2022-08-07T09:09:44.670Z,38.27
2022-08-07T09:12:20.078Z,35.81
2022-08-07T09:16:23.615Z,36.94
2022-08-07T09:18:16.880Z,37.64
2022-08-07T09:21:57.905Z,37.75
2022-08-07T09:24:59.654Z,38.32
2022-08-07T09:27:38.366Z,38.82
2022-08-07T09:30:25.518Z,39.38
2022-08-07T09:33:24.233Z,39.41
2022-08-07T09:36:06.005Z,40.18
2022-08-07T09:38:54.014Z,40.69
2022-08-07T09:41:58.930Z,39.71
2022-08-07T09:47:24.928Z,38.22
2022-08-07T09:48:03.726Z,38.48
2022-08-07T09:50:39.884Z,38.52
2022-08-07T09:53:10.116Z,37.68
2022-08-07T09:56:03.106Z,38.64
2022-08-07T09:59:00.948Z,38.94
2022-08-07T10:02:01.565Z,39.45
2022-08-07T10:04:38.428Z,39.34
2022-08-07T10:07:53.624Z,39.09
2022-08-07T10:11:59.494Z,38.31
2022-08-07T10:14:01.451Z,37.18
2022-08-07T10:16:50.113Z,37.31
2022-08-07T10:19:54.499Z,38.04
2022-08-07T10:22:45.361Z,38.61
2022-08-07T10:25:43.234Z,36.81
2022-08-07T10:28:31.121Z,35.89
2022-08-07T10:31:17.740Z,34.38
2022-08-07T10:34:06.797Z,36.13
2022-08-07T10:36:49.413Z,36.07
2022-08-07T10:39:41.220Z,36.64
2022-08-07T10:42:20.823Z,36.94
2022-08-07T10:44:54.541Z,35.85
2022-08-07T10:47:50.612Z,36.31
2022-08-07T10:50:26.119Z,36.63
2022-08-07T10:53:41.703Z,35.08
2022-08-07T10:56:36.249Z,35.77
2022-08-07T10:59:30.356Z,36.51
2022-08-07T11:02:53.338Z,36.08
2022-08-07T11:05:50.914Z,36.28
2022-08-07T11:08:32.364Z,36.20
2022-08-07T11:11:03.001Z,36.69
2022-08-07T11:14:41.943Z,37.15
2022-08-07T11:16:34.303Z,36.49
2022-08-07T11:19:21.670Z,35.53
2022-08-07T11:22:06.440Z,36.21
2022-08-07T11:25:06.809Z,35.79
2022-08-07T11:28:02.319Z,35.05
2022-08-07T11:30:45.536Z,35.38
2022-08-07T11:33:58.548Z,35.61
2022-08-07T11:36:39.307Z,36.37
2022-08-07T11:39:24.119Z,36.88
2022-08-07T11:42:19.102Z,36.68
2022-08-07T11:44:58.785Z,35.62
2022-08-07T11:48:30.022Z,36.23
2022-08-07T11:51:41.354Z,35.79
2022-08-07T11:54:17.412Z,36.61
2022-08-07T11:57:52.351Z,35.78
2022-08-07T12:00:19.127Z,37.08
2022-08-07T12:03:41.983Z,36.86
2022-08-07T12:06:36.938Z,37.39
2022-08-07T12:09:01.919Z,36.62
2022-08-07T12:12:10.775Z,36.14
2022-08-07T12:14:41.290Z,35.86
2022-08-07T12:17:19.922Z,34.52
2022-08-07T12:20:03.443Z,34.82
2022-08-07T12:23:14.473Z,35.53
2022-08-07T12:26:23.528Z,35.82
2022-08-07T12:29:15.311Z,34.91
2022-08-07T12:32:04.365Z,34.09
2022-08-07T12:34:38.852Z,34.64
2022-08-07T12:37:16.847Z,33.42
2022-08-07T12:39:51.791Z,32.73
2022-08-07T12:42:27.691Z,34.28
2022-08-07T12:44:58.178Z,34.24
2022-08-07T12:47:37.464Z,33.97
2022-08-07T12:50:34.321Z,34.18
2022-08-07T12:53:29.052Z,34.18
2022-08-07T12:56:30.943Z,33.39
2022-08-07T12:59:00.812Z,32.94
2022-08-07T13:01:58.967Z,32.85
2022-08-07T13:04:49.139Z,33.48
2022-08-07T13:08:13.899Z,33.10
2022-08-07T13:10:56.995Z,32.84
2022-08-07T13:13:46.874Z,32.82
2022-08-07T13:16:37.113Z,31.81
2022-08-07T13:19:50.788Z,32.92
2022-08-07T13:22:31.165Z,32.09
2022-08-07T13:25:15.276Z,32.56
2022-08-07T13:28:12.575Z,32.69
2022-08-07T13:30:49.183Z,31.96
2022-08-07T13:34:33.810Z,31.48
2022-08-07T13:36:45.098Z,31.39
2022-08-07T13:40:33.387Z,31.08
2022-08-07T13:42:27.458Z,32.26
2022-08-07T13:45:20.717Z,32.53
2022-08-07T13:48:06.945Z,32.28
2022-08-07T13:50:45.241Z,32.07
2022-08-07T13:54:00.826Z,33.06
2022-08-07T13:56:36.084Z,32.38
2022-08-07T13:59:18.644Z,33.92
2022-08-07T14:02:04.754Z,33.64
2022-08-07T14:04:36.363Z,32.65
2022-08-07T14:07:09.542Z,32.52
2022-08-07T14:10:02.783Z,32.17
2022-08-07T14:12:41.776Z,33.26
2022-08-07T14:15:31.680Z,33.52
2022-08-07T14:18:28.702Z,33.98
2022-08-07T14:22:01.021Z,33.34
2022-08-07T14:24:04.984Z,31.95
2022-08-07T14:26:50.499Z,32.20
2022-08-07T14:30:05.723Z,31.89
2022-08-07T14:32:14.039Z,32.04
2022-08-07T14:34:47.281Z,31.82
2022-08-07T14:37:17.368Z,32.24
2022-08-07T14:40:16.980Z,32.78
2022-08-07T14:43:56.017Z,33.16
2022-08-07T14:45:46.403Z,32.99
2022-08-07T14:48:20.388Z,33.07
2022-08-07T14:50:53.643Z,32.11
2022-08-07T14:54:05.667Z,32.37
2022-08-07T14:56:13.039Z,33.30
2022-08-07T14:58:43.071Z,33.92
2022-08-07T15:01:21.683Z,33.77
2022-08-07T15:03:52.349Z,33.23
2022-08-07T15:06:29.850Z,33.40
2022-08-07T15:12:01.840Z,34.51
2022-08-07T15:13:05.805Z,33.36
2022-08-07T15:14:35.209Z,35.40
2022-08-07T15:17:32.494Z,34.84
2022-08-07T15:20:33.185Z,34.98
2022-08-07T15:23:16.989Z,34.85
2022-08-07T15:25:55.904Z,34.93
2022-08-07T15:28:34.697Z,35.11
2022-08-07T15:31:09.594Z,35.61
2022-08-07T15:33:42.796Z,35.91
2022-08-07T15:36:10.229Z,36.18
2022-08-07T15:38:59.249Z,35.86
2022-08-07T15:42:44.756Z,35.36
2022-08-07T15:44:20.775Z,35.43
2022-08-07T15:46:54.101Z,35.46
2022-08-07T15:50:03.987Z,35.60
2022-08-07T15:52:30.674Z,35.93
2022-08-07T15:55:02.472Z,35.51
2022-08-07T15:57:48.228Z,36.08
2022-08-07T16:00:32.196Z,36.62
2022-08-07T16:03:46.348Z,36.67
2022-08-07T16:06:10.455Z,36.61
2022-08-07T16:08:42.567Z,36.16
2022-08-07T16:11:41.742Z,36.49
2022-08-07T16:14:19.202Z,36.59
2022-08-07T16:16:56.804Z,36.77
2022-08-07T16:19:58.975Z,36.47
2022-08-07T16:22:54.491Z,36.43
2022-08-07T16:25:23.226Z,36.22
2022-08-07T16:27:57.305Z,36.42
2022-08-07T16:30:32.440Z,36.38
2022-08-07T16:34:02.644Z,36.80
2022-08-07T16:36:31.471Z,36.20
2022-08-07T16:39:40.470Z,35.98
2022-08-07T16:43:02.684Z,36.28
2022-08-07T16:46:40.366Z,36.49
2022-08-07T16:49:04.046Z,36.68
2022-08-07T16:51:57.684Z,36.48
2022-08-07T16:54:34.557Z,36.12
2022-08-07T16:57:06.093Z,36.50
2022-08-07T17:00:14.935Z,36.58
2022-08-07T17:03:07.043Z,36.43
2022-08-07T17:06:19.303Z,36.23
2022-08-07T17:10:04.991Z,36.54
2022-08-07T17:12:44.765Z,36.36
2022-08-07T17:15:20.843Z,36.57
2022-08-07T17:17:47.922Z,36.96
2022-08-07T17:20:37.931Z,37.13
2022-08-07T17:23:22.909Z,36.87
2022-08-07T17:26:24.094Z,37.04
2022-08-07T17:28:58.043Z,37.27
2022-08-07T17:31:33.906Z,37.25
2022-08-07T17:34:35.027Z,37.29
2022-08-07T17:38:05.480Z,37.27
2022-08-07T17:40:30.260Z,37.42
2022-08-07T17:43:18.007Z,38.02
2022-08-07T17:45:56.328Z,37.93
2022-08-07T17:48:30.718Z,37.98
2022-08-07T17:51:59.935Z,38.06
2022-08-07T17:54:29.566Z,38.23
2022-08-07T17:57:56.400Z,38.60
2022-08-07T18:00:33.426Z,39.13
2022-08-07T18:03:09.215Z,39.54
2022-08-07T18:06:02.272Z,39.18
2022-08-07T18:09:00.546Z,39.45
2022-08-07T18:12:12.004Z,39.40
2022-08-07T18:14:38.251Z,39.56
2022-08-07T18:18:46.500Z,40.22
2022-08-07T18:21:08.514Z,40.06
2022-08-07T18:23:57.177Z,40.22
2022-08-07T18:26:40.486Z,40.69
2022-08-07T18:30:05.608Z,40.92
2022-08-07T18:32:22.813Z,40.85
2022-08-07T18:35:15.705Z,40.80
2022-08-07T18:38:58.087Z,40.57
2022-08-07T18:41:08.343Z,41.31
2022-08-07T18:43:57.283Z,41.33
2022-08-07T18:46:49.409Z,41.80
2022-08-07T18:50:31.424Z,41.84
2022-08-07T18:52:54.172Z,42.44
2022-08-07T18:55:57.208Z,42.79
2022-08-07T18:58:55.564Z,42.63
2022-08-07T19:02:18.776Z,42.79
2022-08-07T19:04:59.421Z,43.16
2022-08-07T19:07:51.654Z,42.98
2022-08-07T19:10:31.186Z,43.50
2022-08-07T19:13:46.245Z,43.20
2022-08-07T19:17:08.002Z,43.80
2022-08-07T19:20:29.989Z,44.18
2022-08-07T19:23:18.565Z,44.13
2022-08-07T19:26:23.436Z,45.20
2022-08-07T19:30:57.762Z,45.92
2022-08-07T19:32:10.248Z,46.91
2022-08-07T19:34:34.374Z,47.22
2022-08-07T19:37:10.285Z,48.18
2022-08-07T19:39:57.198Z,48.88
2022-08-07T19:42:31.699Z,49.64
2022-08-07T19:45:12.474Z,50.58
2022-08-07T19:47:59.037Z,51.15
2022-08-07T19:50:41.439Z,51.07
2022-08-07T19:54:34.718Z,52.26
2022-08-07T19:56:15.095Z,52.94
2022-08-07T19:58:58.161Z,53.42
2022-08-07T20:01:52.209Z,53.35
2022-08-07T20:04:31.950Z,53.38
2022-08-07T20:07:09.262Z,52.93
2022-08-07T20:10:33.676Z,52.55
2022-08-07T20:12:40.461Z,52.11
2022-08-07T20:15:21.904Z,51.40
2022-08-07T20:18:01.410Z,51.96
2022-08-07T20:20:31.565Z,53.03
2022-08-07T20:23:23.114Z,53.54
2022-08-07T20:25:50.763Z,54.60
2022-08-07T20:28:29.763Z,54.79
2022-08-07T20:31:00.349Z,55.66
2022-08-07T20:33:37.482Z,55.92
2022-08-07T20:36:07.242Z,56.54
2022-08-07T20:38:36.494Z,57.26
2022-08-07T20:41:34.246Z,56.96
2022-08-07T20:44:12.666Z,57.19
2022-08-07T20:46:44.278Z,56.90
2022-08-07T20:49:57.994Z,56.33
2022-08-07T20:52:16.679Z,56.55
2022-08-07T20:54:53.812Z,56.12
2022-08-07T20:57:38.437Z,56.21
2022-08-07T21:00:17.988Z,56.54
2022-08-07T21:02:59.781Z,56.56
2022-08-07T21:05:51.199Z,56.85
2022-08-07T21:08:39.305Z,56.71
2022-08-07T21:11:14.652Z,56.77
2022-08-07T21:14:16.239Z,57.09
2022-08-07T21:17:06.405Z,56.98
2022-08-07T21:19:51.175Z,57.48
2022-08-07T21:22:19.966Z,57.60
2022-08-07T21:24:55.803Z,57.51
2022-08-07T21:27:47.429Z,58.11
2022-08-07T21:30:17.578Z,58.19
2022-08-07T21:33:13.050Z,57.67
2022-08-07T21:36:04.087Z,57.16
2022-08-07T21:38:55.318Z,57.34
2022-08-07T21:41:59.838Z,57.71
2022-08-07T21:44:44.315Z,57.58
2022-08-07T21:47:34.763Z,57.90
2022-08-07T21:50:14.510Z,58.23
2022-08-07T21:53:08.413Z,58.60
2022-08-07T21:56:04.765Z,59.67
2022-08-07T21:59:09.407Z,59.45
2022-08-07T22:02:10.723Z,59.87
2022-08-07T22:04:37.154Z,60.31
2022-08-07T22:07:12.824Z,60.75
2022-08-07T22:09:54.379Z,61.22
2022-08-07T22:12:48.329Z,62.07
2022-08-07T22:16:39.514Z,62.36
2022-08-07T22:18:35.643Z,62.74
2022-08-07T22:21:16.873Z,62.71
2022-08-07T22:23:59.911Z,62.90
2022-08-07T22:26:36.709Z,62.79
2022-08-07T22:29:38.139Z,63.44
2022-08-07T22:32:29.151Z,63.13
2022-08-07T22:35:02.224Z,63.04
2022-08-07T22:38:03.887Z,62.77
2022-08-07T22:40:56.853Z,63.57
2022-08-07T22:43:33.956Z,63.80
2022-08-07T22:47:03.051Z,64.37
2022-08-07T22:49:18.139Z,64.56
2022-08-07T22:52:37.152Z,65.14
2022-08-07T22:55:17.052Z,64.82
2022-08-07T22:58:17.407Z,64.74
2022-08-07T23:01:06.997Z,64.87
2022-08-07T23:04:00.244Z,65.26
2022-08-07T23:06:27.153Z,65.29
2022-08-07T23:10:04.435Z,65.26
2022-08-07T23:12:37.347Z,65.31
2022-08-07T23:15:11.361Z,65.54
2022-08-07T23:18:10.404Z,65.87
2022-08-07T23:20:52.986Z,65.74
2022-08-07T23:24:06.298Z,66.09
2022-08-07T23:26:50.596Z,66.15
2022-08-07T23:30:38.976Z,66.62
2022-08-07T23:34:19.766Z,66.64
2022-08-07T23:35:44.797Z,66.84
2022-08-07T23:38:43.152Z,67.28
2022-08-07T23:41:33.374Z,67.23
2022-08-07T23:44:29.966Z,68.13
2022-08-07T23:47:05.530Z,67.44
2022-08-07T23:49:51.447Z,67.57
2022-08-07T23:52:58.558Z,67.97
2022-08-07T23:55:51.843Z,68.45
2022-08-07T23:58:26.394Z,67.99
